Whaley Lake, New York
Current Conditions -  °F | °C
As of 9:00 AM on Tuesday 27 Jan 2015 (Local Time) from KPOU Reporting Station
Moderate Snow Moderate Snow  
Wind Chill:   Ceiling: 2000
Heat Index: 17°   Visibility: 0.5mi
Dew Point: 10°   Wind: 17mph
Humidity: 74%   Direction: 10°N
Pressure: 29.77"   Gusts: 28mph
Location:  41.5306°N, 73.6674°W
Report Text: KPOU 271400Z 01015G24KT 1/2SM SN VV020 M08/M12 A2977 RMK AO2 P0000 T10831122
Loading
Personal Weather Stations






























Interactive Weather Map New forecast layout! Learn more

10-Day Weather Forecast

Advertisements
Track Severe Weather on mobile